createdAt,value
2022-11-24T00:01:15.716Z,10.37
2022-11-24T00:03:46.457Z,10.39
2022-11-24T00:06:16.164Z,10.42
2022-11-24T00:08:46.046Z,10.45
2022-11-24T00:11:15.963Z,10.47
2022-11-24T00:13:44.162Z,10.49
2022-11-24T00:16:13.922Z,10.51
2022-11-24T00:18:43.237Z,10.53
2022-11-24T00:21:12.799Z,10.55
2022-11-24T00:23:40.884Z,10.40
2022-11-24T00:26:10.691Z,10.27
2022-11-24T00:28:39.486Z,10.22
2022-11-24T00:31:18.186Z,10.20
2022-11-24T00:33:46.925Z,10.17
2022-11-24T00:36:16.691Z,10.16
2022-11-24T00:38:45.203Z,10.19
2022-11-24T00:41:13.627Z,10.21
2022-11-24T00:43:41.583Z,10.25
2022-11-24T00:46:09.652Z,10.30
2022-11-24T00:48:37.706Z,10.37
2022-11-24T00:51:08.043Z,10.43
2022-11-24T00:53:37.681Z,10.46
2022-11-24T00:56:06.053Z,10.47
2022-11-24T00:58:34.435Z,10.51
2022-11-24T01:01:07.864Z,10.50
2022-11-24T01:03:36.612Z,10.50
2022-11-24T01:06:06.217Z,10.50
2022-11-24T01:08:34.530Z,10.51
2022-11-24T01:11:15.158Z,10.52
2022-11-24T01:13:44.544Z,10.50
2022-11-24T01:16:17.207Z,10.52
2022-11-24T01:18:45.905Z,10.53
2022-11-24T01:21:14.175Z,10.53
2022-11-24T01:23:42.570Z,10.55
2022-11-24T01:26:13.702Z,10.56
2022-11-24T01:28:46.586Z,10.60
2022-11-24T01:31:16.235Z,10.64
2022-11-24T01:33:44.958Z,10.67
2022-11-24T01:36:13.087Z,10.69
2022-11-24T01:38:41.090Z,10.71
2022-11-24T01:41:13.878Z,10.72
2022-11-24T01:43:42.852Z,10.66
2022-11-24T01:46:20.831Z,10.63
2022-11-24T01:48:53.148Z,10.67
2022-11-24T01:51:25.278Z,10.66
2022-11-24T01:53:57.700Z,10.67
2022-11-24T01:56:28.046Z,10.68
2022-11-24T01:59:01.068Z,10.67
2022-11-24T02:01:31.570Z,10.67
2022-11-24T02:04:00.746Z,10.69
2022-11-24T02:06:31.528Z,10.72
2022-11-24T02:09:03.764Z,10.67
2022-11-24T02:11:37.547Z,10.58
2022-11-24T02:14:07.427Z,10.54
2022-11-24T02:16:37.712Z,10.49
2022-11-24T02:19:14.419Z,10.50
2022-11-24T02:21:42.478Z,10.50
2022-11-24T02:24:17.470Z,10.50
2022-11-24T02:26:48.359Z,10.50
2022-11-24T02:29:17.197Z,10.49
2022-11-24T02:31:50.340Z,10.51
2022-11-24T02:34:18.449Z,10.52
2022-11-24T02:36:46.413Z,10.52
2022-11-24T02:39:15.754Z,10.51
2022-11-24T02:41:48.077Z,10.52
2022-11-24T02:44:19.014Z,10.51
2022-11-24T02:46:47.041Z,10.52
2022-11-24T02:49:16.230Z,10.54
2022-11-24T02:51:44.225Z,10.54
2022-11-24T02:54:12.221Z,10.50
2022-11-24T02:56:40.155Z,10.45
2022-11-24T02:59:09.514Z,10.41
2022-11-24T03:01:37.565Z,10.39
2022-11-24T03:04:05.796Z,10.32
2022-11-24T03:06:33.762Z,10.23
2022-11-24T03:09:01.901Z,10.12
2022-11-24T03:11:29.887Z,10.04
2022-11-24T03:13:57.879Z,9.96
2022-11-24T03:16:28.609Z,9.87
2022-11-24T03:18:56.582Z,9.83
2022-11-24T03:21:24.544Z,9.80
2022-11-24T03:23:53.571Z,9.76
2022-11-24T03:26:23.359Z,9.75
2022-11-24T03:28:53.935Z,9.73
2022-11-24T03:31:22.209Z,9.70
2022-11-24T03:33:51.724Z,9.67
2022-11-24T03:36:20.153Z,9.65
2022-11-24T03:38:48.121Z,9.65
2022-11-24T03:41:16.071Z,9.63
2022-11-24T03:43:44.484Z,9.59
2022-11-24T03:46:13.002Z,9.52
2022-11-24T03:48:41.084Z,9.47
2022-11-24T03:51:11.379Z,9.42
2022-11-24T03:53:39.391Z,9.40
2022-11-24T03:56:08.037Z,9.42
2022-11-24T03:58:36.091Z,9.40
2022-11-24T04:01:04.511Z,9.38
2022-11-24T04:03:32.572Z,9.31
2022-11-24T04:06:00.579Z,9.24
2022-11-24T04:08:30.022Z,9.16
2022-11-24T04:10:58.006Z,9.13
2022-11-24T04:13:25.963Z,9.09
2022-11-24T04:15:54.323Z,9.07
2022-11-24T04:18:22.412Z,9.04
2022-11-24T04:20:51.151Z,9.02
2022-11-24T04:23:19.303Z,8.99
2022-11-24T04:25:48.798Z,8.95
2022-11-24T04:28:16.760Z,8.92
2022-11-24T04:30:45.485Z,8.89
2022-11-24T04:33:14.369Z,8.86
2022-11-24T04:35:42.317Z,8.84
2022-11-24T04:38:10.332Z,8.82
2022-11-24T04:40:38.671Z,8.81
2022-11-24T04:43:08.072Z,8.81
2022-11-24T04:45:36.039Z,8.79
2022-11-24T04:48:04.142Z,8.81
2022-11-24T04:50:32.130Z,8.82
2022-11-24T04:53:00.116Z,8.81
2022-11-24T04:55:28.102Z,8.80
2022-11-24T04:57:56.090Z,8.81
2022-11-24T05:00:25.506Z,8.82
2022-11-24T05:02:53.514Z,8.83
2022-11-24T05:05:21.473Z,8.84
2022-11-24T05:07:49.457Z,8.84
2022-11-24T05:10:35.293Z,8.84
2022-11-24T05:13:04.372Z,8.82
2022-11-24T05:15:34.199Z,8.81
2022-11-24T05:18:05.475Z,8.82
2022-11-24T05:20:33.489Z,8.84
2022-11-24T05:23:04.004Z,8.83
2022-11-24T05:25:32.184Z,8.85
2022-11-24T05:28:02.281Z,8.87
2022-11-24T05:30:30.810Z,8.90
2022-11-24T05:33:00.325Z,8.94
2022-11-24T05:35:28.424Z,8.98
2022-11-24T05:37:56.403Z,9.03
2022-11-24T05:40:24.509Z,9.09
2022-11-24T05:42:52.555Z,9.15
2022-11-24T05:45:22.624Z,9.20
2022-11-24T05:47:51.586Z,9.24
2022-11-24T05:50:22.983Z,9.30
2022-11-24T05:52:51.343Z,9.36
2022-11-24T05:55:20.645Z,9.42
2022-11-24T05:57:48.658Z,9.48
2022-11-24T06:00:20.300Z,9.51
2022-11-24T06:02:48.519Z,9.54
2022-11-24T06:05:16.739Z,9.57
2022-11-24T06:07:46.232Z,9.59
2022-11-24T06:10:14.362Z,9.59
2022-11-24T06:12:42.363Z,9.59
2022-11-24T06:15:11.309Z,9.62
2022-11-24T06:17:39.623Z,9.64
2022-11-24T06:20:09.630Z,9.66
2022-11-24T06:22:38.105Z,9.70
2022-11-24T06:25:09.504Z,9.70
2022-11-24T06:27:37.535Z,9.72
2022-11-24T06:30:06.468Z,9.71
2022-11-24T06:32:34.477Z,9.69
2022-11-24T06:35:02.457Z,9.67
2022-11-24T06:37:30.556Z,9.67
2022-11-24T06:39:58.595Z,9.65
2022-11-24T06:42:27.935Z,9.65
2022-11-24T06:44:55.986Z,9.65
2022-11-24T06:47:23.983Z,9.63
2022-11-24T06:49:51.962Z,9.63
2022-11-24T06:52:19.996Z,9.66
2022-11-24T06:54:50.465Z,9.69
2022-11-24T06:57:18.425Z,9.71
2022-11-24T06:59:47.840Z,9.72
2022-11-24T07:02:15.821Z,9.74
2022-11-24T07:04:43.841Z,9.75
2022-11-24T07:07:12.803Z,9.76
2022-11-24T07:09:40.952Z,9.73
2022-11-24T07:12:09.129Z,9.72
2022-11-24T07:14:37.364Z,9.72
2022-11-24T07:17:07.473Z,9.75
2022-11-24T07:19:35.769Z,9.78
2022-11-24T07:22:03.741Z,9.80
2022-11-24T07:24:31.882Z,9.82
2022-11-24T07:27:03.094Z,9.82
2022-11-24T07:29:31.094Z,9.84
2022-11-24T07:32:05.285Z,9.90
2022-11-24T07:34:35.235Z,9.99
2022-11-24T07:37:03.369Z,10.06
2022-11-24T07:39:31.457Z,10.16
2022-11-24T07:42:00.406Z,10.26
2022-11-24T07:44:28.664Z,10.36
2022-11-24T07:46:56.613Z,10.45
2022-11-24T07:49:24.647Z,10.52
2022-11-24T07:51:54.086Z,10.57
2022-11-24T07:54:22.107Z,10.61
2022-11-24T07:56:50.239Z,10.62
2022-11-24T07:59:18.228Z,10.62
2022-11-24T08:01:46.256Z,10.59
2022-11-24T08:04:14.395Z,10.59
2022-11-24T08:06:47.125Z,10.59
2022-11-24T08:09:17.041Z,10.61
2022-11-24T08:11:45.037Z,10.63
2022-11-24T08:14:13.033Z,10.66
2022-11-24T08:16:41.158Z,10.69
2022-11-24T08:19:10.999Z,10.73
2022-11-24T08:21:39.147Z,10.74
2022-11-24T08:24:08.550Z,10.75
2022-11-24T08:26:37.953Z,10.76
2022-11-24T08:29:06.043Z,10.78
2022-11-24T08:31:35.486Z,10.80
2022-11-24T08:34:04.782Z,10.82
2022-11-24T08:36:33.770Z,10.84
2022-11-24T08:39:01.958Z,10.88
2022-11-24T08:41:31.441Z,10.90
2022-11-24T08:44:00.821Z,10.92
2022-11-24T08:46:28.902Z,10.94
2022-11-24T08:48:56.899Z,10.94
2022-11-24T08:51:27.064Z,10.94
2022-11-24T08:53:58.494Z,10.95
2022-11-24T08:56:27.698Z,10.99
2022-11-24T08:58:56.627Z,11.02
2022-11-24T09:01:26.506Z,11.03
2022-11-24T09:03:55.102Z,11.07
2022-11-24T09:06:25.759Z,11.11
2022-11-24T09:08:55.555Z,11.14
2022-11-24T09:11:24.257Z,11.20
2022-11-24T09:13:52.561Z,11.26
2022-11-24T09:16:22.290Z,11.32
2022-11-24T09:18:56.808Z,11.40
2022-11-24T09:21:25.142Z,11.47
2022-11-24T09:23:54.387Z,11.52
2022-11-24T09:26:23.986Z,11.56
2022-11-24T09:28:54.665Z,11.61
2022-11-24T09:31:25.105Z,11.63
2022-11-24T09:33:55.336Z,11.66
2022-11-24T09:36:24.630Z,11.72
2022-11-24T09:38:52.745Z,11.80
2022-11-24T09:41:47.311Z,11.84
2022-11-24T09:45:06.531Z,11.86
2022-11-24T09:47:42.973Z,11.85
2022-11-24T09:50:18.330Z,11.83
2022-11-24T09:52:53.091Z,11.83
2022-11-24T09:55:31.646Z,11.83
2022-11-24T09:58:16.728Z,11.81
2022-11-24T10:00:44.743Z,11.77
2022-11-24T10:03:20.907Z,11.75
2022-11-24T10:05:52.396Z,11.74
2022-11-24T10:08:45.424Z,11.72
2022-11-24T10:11:15.903Z,11.70
2022-11-24T10:14:08.718Z,11.68
2022-11-24T10:16:48.017Z,11.68
2022-11-24T10:19:37.157Z,11.67
2022-11-24T10:22:22.756Z,11.66
2022-11-24T10:25:05.331Z,11.63
2022-11-24T10:27:38.691Z,11.63
2022-11-24T10:30:15.975Z,11.64
2022-11-24T10:32:48.072Z,11.67
2022-11-24T10:35:19.568Z,11.70
2022-11-24T10:37:57.549Z,11.73
2022-11-24T10:43:28.647Z,11.78
2022-11-24T10:46:01.416Z,11.78
2022-11-24T10:48:38.666Z,11.79
2022-11-24T10:51:33.420Z,11.78
2022-11-24T10:54:07.033Z,11.76
2022-11-24T10:56:41.205Z,11.76
2022-11-24T10:59:23.734Z,11.73
2022-11-24T11:01:52.366Z,11.71
2022-11-24T11:04:22.464Z,11.67
2022-11-24T11:06:50.777Z,11.64
2022-11-24T11:09:22.240Z,11.61
2022-11-24T11:11:50.663Z,11.59
2022-11-24T11:14:33.057Z,11.58
2022-11-24T11:17:01.255Z,11.57
2022-11-24T11:19:54.173Z,11.56
2022-11-24T11:22:28.316Z,11.53
2022-11-24T11:25:08.874Z,11.51
2022-11-24T11:27:37.658Z,11.48
2022-11-24T11:36:16.891Z,11.28
2022-11-24T11:38:46.538Z,11.24
2022-11-24T11:41:23.338Z,11.20
2022-11-24T11:43:58.375Z,11.19
2022-11-24T11:46:29.011Z,11.14
2022-11-24T11:48:57.081Z,11.09
2022-11-24T11:51:39.333Z,11.04
2022-11-24T11:54:15.649Z,10.97
2022-11-24T11:57:02.351Z,10.87
2022-11-24T11:59:44.125Z,10.82
2022-11-24T12:02:32.494Z,10.84
2022-11-24T12:05:02.570Z,10.86
2022-11-24T12:07:45.475Z,10.82
2022-11-24T12:10:24.325Z,10.70
2022-11-24T12:13:32.370Z,10.54
2022-11-24T12:16:09.808Z,10.44
2022-11-24T12:18:59.414Z,10.39
2022-11-24T12:21:35.625Z,10.41
2022-11-24T12:24:12.418Z,10.45
2022-11-24T12:26:45.183Z,10.46
2022-11-24T12:29:46.524Z,10.49
2022-11-24T12:32:31.874Z,10.47
2022-11-24T12:35:10.060Z,10.49
2022-11-24T12:37:51.986Z,10.54
2022-11-24T12:40:33.276Z,10.63
2022-11-24T12:43:12.511Z,10.69
2022-11-24T12:45:55.159Z,10.80
2022-11-24T12:48:38.122Z,10.88
2022-11-24T12:51:12.383Z,10.95
2022-11-24T12:53:41.499Z,11.07
2022-11-24T12:56:13.765Z,11.14
2022-11-24T12:58:50.276Z,11.26
2022-11-24T13:01:30.554Z,11.31
2022-11-24T13:04:11.656Z,11.38
2022-11-24T13:06:49.803Z,11.49
2022-11-24T13:09:18.213Z,11.61
2022-11-24T13:11:47.459Z,11.71
2022-11-24T13:14:19.052Z,11.80
2022-11-24T13:17:21.570Z,11.84
2022-11-24T13:19:41.583Z,11.81
2022-11-24T13:22:19.625Z,11.76
2022-11-24T13:25:06.077Z,11.70
2022-11-24T13:27:48.337Z,11.64
2022-11-24T13:30:53.224Z,11.59
2022-11-24T13:33:39.376Z,11.26
2022-11-24T13:36:35.008Z,10.55
2022-11-24T13:39:05.231Z,10.12
2022-11-24T13:42:01.373Z,9.82
2022-11-24T13:44:29.602Z,9.61
2022-11-24T13:47:04.885Z,9.51
2022-11-24T13:49:46.565Z,9.50
2022-11-24T13:52:41.831Z,9.58
2022-11-24T13:55:22.304Z,9.74
2022-11-24T13:57:52.938Z,9.88
2022-11-24T14:00:23.440Z,9.92
2022-11-24T14:02:53.973Z,9.87
2022-11-24T14:05:35.054Z,9.93
2022-11-24T14:08:03.737Z,9.97
2022-11-24T14:10:36.064Z,9.98
2022-11-24T14:13:34.647Z,9.95
2022-11-24T14:16:05.570Z,9.92
2022-11-24T14:18:34.636Z,9.94
2022-11-24T14:21:24.760Z,9.97
2022-11-24T14:23:55.604Z,10.06
2022-11-24T14:26:25.185Z,10.18
2022-11-24T14:28:54.951Z,10.26
2022-11-24T14:31:25.099Z,10.34
2022-11-24T14:34:17.178Z,10.39
2022-11-24T14:36:46.616Z,10.41
2022-11-24T14:39:16.491Z,10.46
2022-11-24T14:41:51.637Z,10.51
2022-11-24T14:44:23.929Z,10.58
2022-11-24T14:46:52.865Z,10.61
2022-11-24T14:49:23.754Z,10.60
2022-11-24T14:51:57.785Z,10.60
2022-11-24T14:54:26.171Z,10.64
2022-11-24T14:57:02.123Z,10.65
2022-11-24T14:59:31.970Z,10.60
2022-11-24T15:02:00.822Z,10.58
2022-11-24T15:05:02.068Z,10.56
2022-11-24T15:07:29.230Z,10.52
2022-11-24T15:09:59.833Z,10.48
2022-11-24T15:12:30.890Z,10.45
2022-11-24T15:15:02.112Z,10.41
2022-11-24T15:17:32.059Z,10.41
2022-11-24T15:20:04.144Z,10.37
2022-11-24T15:22:39.799Z,10.31
2022-11-24T15:25:32.525Z,10.26
2022-11-24T15:28:01.224Z,10.25
2022-11-24T15:30:29.561Z,10.26
2022-11-24T15:32:59.168Z,10.27
2022-11-24T15:35:30.545Z,10.30
2022-11-24T15:38:00.415Z,10.30
2022-11-24T15:40:28.474Z,10.30
2022-11-24T15:43:00.807Z,10.31
2022-11-24T15:45:35.857Z,10.32
2022-11-24T15:48:04.325Z,10.35
2022-11-24T15:50:32.390Z,10.36
2022-11-24T15:53:01.900Z,10.37
2022-11-24T15:55:29.940Z,10.33
2022-11-24T15:57:58.021Z,10.26
2022-11-24T16:00:26.201Z,10.21
2022-11-24T16:02:54.658Z,10.16
2022-11-24T16:05:22.667Z,10.16
2022-11-24T16:07:55.078Z,10.14
2022-11-24T16:10:28.027Z,10.13
2022-11-24T16:12:56.211Z,10.10
2022-11-24T16:15:24.492Z,10.10
2022-11-24T16:17:52.788Z,10.05
2022-11-24T16:20:21.247Z,10.01
2022-11-24T16:22:49.431Z,10.00
2022-11-24T16:25:17.698Z,9.94
2022-11-24T16:27:47.780Z,9.87
2022-11-24T16:30:16.297Z,9.84
2022-11-24T16:32:44.395Z,9.80
2022-11-24T16:35:12.432Z,9.75
2022-11-24T16:37:40.562Z,9.70
2022-11-24T16:40:09.750Z,9.67
2022-11-24T16:42:37.884Z,9.67
2022-11-24T16:45:08.430Z,9.69
2022-11-24T16:47:40.700Z,9.73
2022-11-24T16:50:09.852Z,9.75
2022-11-24T16:52:38.192Z,9.74
2022-11-24T16:55:06.939Z,9.71
2022-11-24T16:57:35.110Z,9.67
2022-11-24T17:00:03.593Z,9.65
2022-11-24T17:02:34.231Z,9.61
2022-11-24T17:05:02.660Z,9.55
2022-11-24T17:07:31.146Z,9.51
2022-11-24T17:10:00.686Z,9.46
2022-11-24T17:12:29.101Z,9.41
2022-11-24T17:15:24.354Z,9.39
2022-11-24T17:18:16.149Z,9.39
2022-11-24T17:20:36.193Z,9.35
2022-11-24T17:23:04.361Z,9.30
2022-11-24T17:25:33.532Z,9.25
2022-11-24T17:28:01.693Z,9.22
2022-11-24T17:30:29.790Z,9.20
2022-11-24T17:32:59.681Z,9.19
2022-11-24T17:35:28.276Z,9.22
2022-11-24T17:37:57.147Z,9.21
2022-11-24T17:40:29.448Z,9.23
2022-11-24T17:43:00.009Z,9.21
2022-11-24T17:45:28.724Z,9.24
2022-11-24T17:47:57.326Z,9.24
2022-11-24T17:50:26.949Z,9.25
2022-11-24T17:52:55.137Z,9.25
2022-11-24T17:55:23.224Z,9.27
2022-11-24T17:57:51.691Z,9.29
2022-11-24T18:00:20.693Z,9.34
2022-11-24T18:02:48.774Z,9.36
2022-11-24T18:05:17.011Z,9.40
2022-11-24T18:07:46.549Z,9.40
2022-11-24T18:10:14.819Z,9.41
2022-11-24T18:12:42.922Z,9.41
2022-11-24T18:15:11.852Z,9.39
2022-11-24T18:17:39.908Z,9.33
2022-11-24T18:20:09.350Z,9.29
2022-11-24T18:23:03.907Z,9.23
2022-11-24T18:25:27.569Z,9.18
2022-11-24T18:27:55.650Z,9.16
2022-11-24T18:30:24.447Z,9.12
2022-11-24T18:32:53.694Z,9.09
2022-11-24T18:35:21.737Z,9.07
2022-11-24T18:37:49.764Z,9.07
2022-11-24T18:40:17.815Z,9.06
2022-11-24T18:42:47.271Z,9.07
2022-11-24T18:45:15.376Z,9.09
2022-11-24T18:47:43.500Z,9.14
2022-11-24T18:50:11.773Z,9.20
2022-11-24T18:52:39.876Z,9.29
2022-11-24T18:55:08.641Z,9.37
2022-11-24T18:57:36.699Z,9.47
2022-11-24T19:00:07.591Z,9.53
2022-11-24T19:02:35.683Z,9.54
2022-11-24T19:05:04.912Z,9.46
2022-11-24T19:07:33.342Z,9.33
2022-11-24T19:10:01.699Z,9.21
2022-11-24T19:12:29.966Z,9.12
2022-11-24T19:14:58.442Z,9.04
2022-11-24T19:17:28.008Z,8.97
2022-11-24T19:19:56.035Z,8.93
2022-11-24T19:22:24.140Z,8.91
2022-11-24T19:24:52.144Z,8.97
2022-11-24T19:27:21.929Z,9.06
2022-11-24T19:29:50.079Z,9.12
2022-11-24T19:32:20.292Z,9.15
2022-11-24T19:34:49.703Z,9.14
2022-11-24T19:37:17.667Z,9.13
2022-11-24T19:39:45.843Z,9.15
2022-11-24T19:42:13.915Z,9.17
2022-11-24T19:44:42.029Z,9.21
2022-11-24T19:47:10.043Z,9.23
2022-11-24T19:49:39.534Z,9.28
2022-11-24T19:52:09.180Z,9.33
2022-11-24T19:54:37.515Z,9.38
2022-11-24T19:57:05.578Z,9.44
2022-11-24T19:59:33.643Z,9.46
2022-11-24T20:02:02.654Z,9.50
2022-11-24T20:04:33.327Z,9.53
2022-11-24T20:07:01.634Z,9.54
2022-11-24T20:09:31.113Z,9.53
2022-11-24T20:11:59.842Z,9.51
2022-11-24T20:14:27.862Z,9.47
2022-11-24T20:16:56.115Z,9.44
2022-11-24T20:19:24.197Z,9.42
2022-11-24T20:21:54.155Z,9.37
2022-11-24T20:24:24.769Z,9.36
2022-11-24T20:26:56.470Z,9.37
2022-11-24T20:29:24.909Z,9.42
2022-11-24T20:31:54.980Z,9.47
2022-11-24T20:34:24.001Z,9.48
2022-11-24T20:36:52.997Z,9.49
2022-11-24T20:39:25.484Z,9.52
2022-11-24T20:41:56.668Z,9.54
2022-11-24T20:44:26.719Z,9.59
2022-11-24T20:46:59.733Z,9.62
2022-11-24T20:49:29.149Z,9.65
2022-11-24T20:51:57.564Z,9.66
2022-11-24T20:54:25.934Z,9.67
2022-11-24T20:56:55.552Z,9.67
2022-11-24T20:59:24.920Z,9.66
2022-11-24T21:01:55.251Z,9.62
2022-11-24T21:04:25.354Z,9.57
2022-11-24T21:06:53.381Z,9.56
2022-11-24T21:09:21.572Z,9.56
2022-11-24T21:11:49.697Z,9.55
2022-11-24T21:14:19.120Z,9.55
2022-11-24T21:16:47.170Z,9.55
2022-11-24T21:19:18.231Z,9.58
2022-11-24T21:21:47.729Z,9.62
2022-11-24T21:24:17.293Z,9.64
2022-11-24T21:26:48.081Z,9.61
2022-11-24T21:29:20.299Z,9.57
2022-11-24T21:31:48.637Z,9.55
2022-11-24T21:34:18.660Z,9.48
2022-11-24T21:36:47.392Z,9.46
2022-11-24T21:39:16.718Z,9.46
2022-11-24T21:41:45.124Z,9.48
2022-11-24T21:44:13.689Z,9.37
2022-11-24T21:46:49.685Z,9.19
2022-11-24T21:49:22.633Z,9.10
2022-11-24T21:51:55.476Z,9.22
2022-11-24T21:54:24.388Z,9.15
2022-11-24T21:56:52.634Z,9.03
2022-11-24T21:59:22.075Z,8.92
2022-11-24T22:01:51.601Z,8.85
2022-11-24T22:04:19.635Z,8.78
2022-11-24T22:06:47.694Z,8.77
2022-11-24T22:09:18.203Z,8.84
2022-11-24T22:11:46.706Z,8.88
2022-11-24T22:14:14.715Z,8.98
2022-11-24T22:16:42.822Z,9.05
2022-11-24T22:19:12.279Z,9.10
2022-11-24T22:21:40.297Z,9.15
2022-11-24T22:24:09.217Z,9.18
2022-11-24T22:26:37.413Z,9.18
2022-11-24T22:29:06.096Z,9.21
2022-11-24T22:31:34.368Z,9.22
2022-11-24T22:34:02.487Z,9.26
2022-11-24T22:36:32.388Z,9.32
2022-11-24T22:39:03.154Z,9.41
2022-11-24T22:41:32.366Z,9.55
2022-11-24T22:44:00.614Z,9.65
2022-11-24T22:46:31.121Z,9.69
2022-11-24T22:49:00.723Z,9.75
2022-11-24T22:51:32.499Z,9.84
2022-11-24T22:54:02.160Z,9.92
2022-11-24T22:56:32.410Z,9.96
2022-11-24T22:59:01.082Z,9.96
2022-11-24T23:01:30.357Z,10.04
2022-11-24T23:03:58.606Z,10.09
2022-11-24T23:06:28.789Z,10.14
2022-11-24T23:08:59.687Z,10.11
2022-11-24T23:11:36.273Z,10.08
2022-11-24T23:14:06.172Z,10.14
2022-11-24T23:16:34.281Z,10.26
2022-11-24T23:19:02.397Z,10.37
2022-11-24T23:21:32.130Z,10.50
2022-11-24T23:24:03.258Z,10.55
2022-11-24T23:26:33.456Z,10.62
2022-11-24T23:29:01.934Z,10.66
2022-11-24T23:31:30.265Z,10.77
2022-11-24T23:33:59.966Z,10.79
2022-11-24T23:36:28.827Z,10.80
2022-11-24T23:38:56.996Z,10.81
2022-11-24T23:41:26.965Z,10.84
2022-11-24T23:43:54.948Z,10.85
2022-11-24T23:46:24.795Z,10.87
2022-11-24T23:48:54.599Z,10.84
2022-11-24T23:51:23.975Z,10.84
2022-11-24T23:53:52.955Z,10.87
2022-11-24T23:56:23.195Z,10.94
2022-11-24T23:58:53.263Z,10.93
